sensor_id;sensor_type;location;lat;lon;timestamp;P1;durP1;ratioP1;P2;durP2;ratioP2
13743;SDS011;6943;52.368;9.966;2023-07-13T00:00:13;3.20;;;2.23;;
13743;SDS011;6943;52.368;9.966;2023-07-13T00:02:41;3.27;;;2.43;;
13743;SDS011;6943;52.368;9.966;2023-07-13T00:05:07;3.87;;;2.57;;
13743;SDS011;6943;52.368;9.966;2023-07-13T00:07:34;4.00;;;2.00;;
13743;SDS011;6943;52.368;9.966;2023-07-13T00:10:00;3.40;;;2.33;;
13743;SDS011;6943;52.368;9.966;2023-07-13T00:12:28;3.80;;;2.27;;
13743;SDS011;6943;52.368;9.966;2023-07-13T00:14:55;2.70;;;2.27;;
13743;SDS011;6943;52.368;9.966;2023-07-13T00:17:22;3.33;;;2.13;;
13743;SDS011;6943;52.368;9.966;2023-07-13T00:19:48;4.10;;;2.73;;
13743;SDS011;6943;52.368;9.966;2023-07-13T00:22:14;4.63;;;2.70;;
13743;SDS011;6943;52.368;9.966;2023-07-13T00:24:40;5.43;;;2.77;;
13743;SDS011;6943;52.368;9.966;2023-07-13T00:27:10;4.73;;;2.60;;
13743;SDS011;6943;52.368;9.966;2023-07-13T00:29:36;2.87;;;2.00;;
13743;SDS011;6943;52.368;9.966;2023-07-13T00:32:03;4.07;;;2.00;;
13743;SDS011;6943;52.368;9.966;2023-07-13T00:34:29;3.87;;;2.50;;
13743;SDS011;6943;52.368;9.966;2023-07-13T00:36:55;4.70;;;2.37;;
13743;SDS011;6943;52.368;9.966;2023-07-13T00:39:21;3.43;;;2.50;;
13743;SDS011;6943;52.368;9.966;2023-07-13T00:41:47;5.13;;;2.43;;
13743;SDS011;6943;52.368;9.966;2023-07-13T00:44:13;3.20;;;2.33;;
13743;SDS011;6943;52.368;9.966;2023-07-13T00:46:40;5.70;;;2.93;;
13743;SDS011;6943;52.368;9.966;2023-07-13T00:49:07;4.70;;;2.30;;
13743;SDS011;6943;52.368;9.966;2023-07-13T00:51:39;4.03;;;2.33;;
13743;SDS011;6943;52.368;9.966;2023-07-13T00:54:07;3.70;;;2.17;;
13743;SDS011;6943;52.368;9.966;2023-07-13T00:56:34;4.53;;;2.40;;
13743;SDS011;6943;52.368;9.966;2023-07-13T00:59:01;4.40;;;2.00;;
13743;SDS011;6943;52.368;9.966;2023-07-13T01:01:28;5.67;;;2.40;;
13743;SDS011;6943;52.368;9.966;2023-07-13T01:03:54;4.83;;;2.37;;
13743;SDS011;6943;52.368;9.966;2023-07-13T01:06:22;4.33;;;2.80;;
13743;SDS011;6943;52.368;9.966;2023-07-13T01:08:47;4.23;;;2.30;;
13743;SDS011;6943;52.368;9.966;2023-07-13T01:11:17;3.83;;;2.30;;
13743;SDS011;6943;52.368;9.966;2023-07-13T01:13:43;3.10;;;2.43;;
13743;SDS011;6943;52.368;9.966;2023-07-13T01:16:19;3.13;;;2.17;;
13743;SDS011;6943;52.368;9.966;2023-07-13T01:18:48;3.57;;;2.67;;
13743;SDS011;6943;52.368;9.966;2023-07-13T01:21:14;5.07;;;2.57;;
13743;SDS011;6943;52.368;9.966;2023-07-13T01:23:40;5.00;;;2.17;;
13743;SDS011;6943;52.368;9.966;2023-07-13T01:26:06;4.23;;;2.50;;
13743;SDS011;6943;52.368;9.966;2023-07-13T01:28:32;4.93;;;2.50;;
13743;SDS011;6943;52.368;9.966;2023-07-13T01:31:01;2.60;;;2.17;;
13743;SDS011;6943;52.368;9.966;2023-07-13T01:33:27;4.13;;;2.43;;
13743;SDS011;6943;52.368;9.966;2023-07-13T01:35:54;4.10;;;2.77;;
13743;SDS011;6943;52.368;9.966;2023-07-13T01:38:22;2.37;;;2.17;;
13743;SDS011;6943;52.368;9.966;2023-07-13T01:40:49;3.17;;;2.50;;
13743;SDS011;6943;52.368;9.966;2023-07-13T01:43:15;4.90;;;2.30;;
13743;SDS011;6943;52.368;9.966;2023-07-13T01:45:41;2.63;;;2.30;;
13743;SDS011;6943;52.368;9.966;2023-07-13T01:48:08;3.47;;;2.50;;
13743;SDS011;6943;52.368;9.966;2023-07-13T01:50:34;4.80;;;2.57;;
13743;SDS011;6943;52.368;9.966;2023-07-13T01:53:01;3.93;;;2.77;;
13743;SDS011;6943;52.368;9.966;2023-07-13T01:55:27;5.80;;;2.97;;
13743;SDS011;6943;52.368;9.966;2023-07-13T01:57:53;5.97;;;3.20;;
13743;SDS011;6943;52.368;9.966;2023-07-13T02:00:19;5.20;;;2.83;;
13743;SDS011;6943;52.368;9.966;2023-07-13T02:02:45;3.40;;;2.90;;
13743;SDS011;6943;52.368;9.966;2023-07-13T02:05:11;5.13;;;3.00;;
13743;SDS011;6943;52.368;9.966;2023-07-13T02:07:37;5.07;;;2.97;;
13743;SDS011;6943;52.368;9.966;2023-07-13T02:10:04;3.80;;;3.00;;
13743;SDS011;6943;52.368;9.966;2023-07-13T02:12:30;7.50;;;3.40;;
13743;SDS011;6943;52.368;9.966;2023-07-13T02:14:56;5.13;;;2.83;;
13743;SDS011;6943;52.368;9.966;2023-07-13T02:17:22;5.00;;;2.90;;
13743;SDS011;6943;52.368;9.966;2023-07-13T02:19:48;6.57;;;3.20;;
13743;SDS011;6943;52.368;9.966;2023-07-13T02:22:14;3.63;;;2.63;;
13743;SDS011;6943;52.368;9.966;2023-07-13T02:24:39;6.33;;;3.10;;
13743;SDS011;6943;52.368;9.966;2023-07-13T02:27:05;5.63;;;3.37;;
13743;SDS011;6943;52.368;9.966;2023-07-13T02:29:31;5.27;;;3.10;;
13743;SDS011;6943;52.368;9.966;2023-07-13T02:31:57;4.57;;;2.87;;
13743;SDS011;6943;52.368;9.966;2023-07-13T02:34:23;8.37;;;3.20;;
13743;SDS011;6943;52.368;9.966;2023-07-13T02:36:49;4.37;;;3.33;;
13743;SDS011;6943;52.368;9.966;2023-07-13T02:39:15;4.03;;;3.10;;
13743;SDS011;6943;52.368;9.966;2023-07-13T02:41:41;4.00;;;3.00;;
13743;SDS011;6943;52.368;9.966;2023-07-13T02:44:07;4.50;;;3.30;;
13743;SDS011;6943;52.368;9.966;2023-07-13T02:46:34;5.20;;;2.93;;
13743;SDS011;6943;52.368;9.966;2023-07-13T02:49:00;5.13;;;2.77;;
13743;SDS011;6943;52.368;9.966;2023-07-13T02:51:26;5.40;;;3.07;;
13743;SDS011;6943;52.368;9.966;2023-07-13T02:53:53;4.33;;;3.13;;
13743;SDS011;6943;52.368;9.966;2023-07-13T02:56:22;4.63;;;2.70;;
13743;SDS011;6943;52.368;9.966;2023-07-13T02:58:48;7.67;;;3.13;;
13743;SDS011;6943;52.368;9.966;2023-07-13T03:01:14;7.17;;;2.83;;
13743;SDS011;6943;52.368;9.966;2023-07-13T03:03:44;5.20;;;2.83;;
13743;SDS011;6943;52.368;9.966;2023-07-13T03:06:10;5.77;;;3.40;;
13743;SDS011;6943;52.368;9.966;2023-07-13T03:08:36;7.40;;;2.87;;
13743;SDS011;6943;52.368;9.966;2023-07-13T03:11:11;4.67;;;2.73;;
13743;SDS011;6943;52.368;9.966;2023-07-13T03:13:37;6.43;;;2.93;;
13743;SDS011;6943;52.368;9.966;2023-07-13T03:16:03;4.83;;;2.70;;
13743;SDS011;6943;52.368;9.966;2023-07-13T03:18:30;5.93;;;2.70;;
13743;SDS011;6943;52.368;9.966;2023-07-13T03:20:56;5.17;;;2.63;;
13743;SDS011;6943;52.368;9.966;2023-07-13T03:23:22;3.27;;;2.50;;
13743;SDS011;6943;52.368;9.966;2023-07-13T03:25:48;4.63;;;2.47;;
13743;SDS011;6943;52.368;9.966;2023-07-13T03:28:14;5.60;;;2.80;;
13743;SDS011;6943;52.368;9.966;2023-07-13T03:30:40;5.77;;;2.80;;
13743;SDS011;6943;52.368;9.966;2023-07-13T03:33:06;4.70;;;2.60;;
13743;SDS011;6943;52.368;9.966;2023-07-13T03:35:32;8.50;;;3.03;;
13743;SDS011;6943;52.368;9.966;2023-07-13T03:37:58;5.20;;;2.93;;
13743;SDS011;6943;52.368;9.966;2023-07-13T03:40:25;4.07;;;2.83;;
13743;SDS011;6943;52.368;9.966;2023-07-13T03:42:51;4.73;;;2.67;;
13743;SDS011;6943;52.368;9.966;2023-07-13T03:45:17;4.40;;;2.43;;
13743;SDS011;6943;52.368;9.966;2023-07-13T03:47:43;5.00;;;2.60;;
13743;SDS011;6943;52.368;9.966;2023-07-13T03:50:09;3.57;;;2.40;;
13743;SDS011;6943;52.368;9.966;2023-07-13T03:52:35;2.63;;;2.27;;
13743;SDS011;6943;52.368;9.966;2023-07-13T03:55:00;5.77;;;2.50;;
13743;SDS011;6943;52.368;9.966;2023-07-13T03:57:26;5.57;;;2.40;;
13743;SDS011;6943;52.368;9.966;2023-07-13T03:59:52;3.10;;;2.00;;
13743;SDS011;6943;52.368;9.966;2023-07-13T04:02:18;4.63;;;2.10;;
13743;SDS011;6943;52.368;9.966;2023-07-13T04:04:44;4.57;;;2.20;;
13743;SDS011;6943;52.368;9.966;2023-07-13T04:07:11;3.57;;;2.30;;
13743;SDS011;6943;52.368;9.966;2023-07-13T04:09:37;4.07;;;2.23;;
13743;SDS011;6943;52.368;9.966;2023-07-13T04:12:03;4.27;;;2.27;;
13743;SDS011;6943;52.368;9.966;2023-07-13T04:14:29;4.17;;;2.20;;
13743;SDS011;6943;52.368;9.966;2023-07-13T04:16:55;4.07;;;2.20;;
13743;SDS011;6943;52.368;9.966;2023-07-13T04:19:22;5.10;;;2.15;;
13743;SDS011;6943;52.368;9.966;2023-07-13T04:21:48;5.88;;;2.33;;
13743;SDS011;6943;52.368;9.966;2023-07-13T04:24:14;2.65;;;1.80;;
13743;SDS011;6943;52.368;9.966;2023-07-13T04:26:40;3.97;;;2.00;;
13743;SDS011;6943;52.368;9.966;2023-07-13T04:29:06;2.50;;;1.67;;
13743;SDS011;6943;52.368;9.966;2023-07-13T04:31:32;5.70;;;1.92;;
13743;SDS011;6943;52.368;9.966;2023-07-13T04:33:58;3.90;;;1.55;;
13743;SDS011;6943;52.368;9.966;2023-07-13T04:36:24;3.80;;;1.90;;
13743;SDS011;6943;52.368;9.966;2023-07-13T04:38:53;2.80;;;1.70;;
13743;SDS011;6943;52.368;9.966;2023-07-13T04:41:20;4.05;;;1.90;;
13743;SDS011;6943;52.368;9.966;2023-07-13T04:43:46;3.38;;;1.60;;
13743;SDS011;6943;52.368;9.966;2023-07-13T04:46:14;4.10;;;2.22;;
13743;SDS011;6943;52.368;9.966;2023-07-13T04:48:42;2.90;;;1.50;;
13743;SDS011;6943;52.368;9.966;2023-07-13T04:51:08;3.80;;;1.65;;
13743;SDS011;6943;52.368;9.966;2023-07-13T04:53:34;4.63;;;1.77;;
13743;SDS011;6943;52.368;9.966;2023-07-13T04:56:00;5.00;;;1.70;;
13743;SDS011;6943;52.368;9.966;2023-07-13T04:58:26;4.28;;;1.52;;
13743;SDS011;6943;52.368;9.966;2023-07-13T05:00:52;3.03;;;1.90;;
13743;SDS011;6943;52.368;9.966;2023-07-13T05:03:18;4.13;;;1.80;;
13743;SDS011;6943;52.368;9.966;2023-07-13T05:05:54;3.78;;;1.65;;
13743;SDS011;6943;52.368;9.966;2023-07-13T05:08:20;6.38;;;2.10;;
13743;SDS011;6943;52.368;9.966;2023-07-13T05:10:46;3.22;;;1.55;;
13743;SDS011;6943;52.368;9.966;2023-07-13T05:13:11;4.32;;;1.77;;
13743;SDS011;6943;52.368;9.966;2023-07-13T05:15:37;5.30;;;1.70;;
13743;SDS011;6943;52.368;9.966;2023-07-13T05:18:03;3.42;;;1.80;;
13743;SDS011;6943;52.368;9.966;2023-07-13T05:20:29;4.97;;;1.85;;
13743;SDS011;6943;52.368;9.966;2023-07-13T05:22:55;4.47;;;1.52;;
13743;SDS011;6943;52.368;9.966;2023-07-13T05:25:21;3.08;;;1.85;;
13743;SDS011;6943;52.368;9.966;2023-07-13T05:27:47;4.07;;;2.00;;
13743;SDS011;6943;52.368;9.966;2023-07-13T05:30:13;3.50;;;1.73;;
13743;SDS011;6943;52.368;9.966;2023-07-13T05:32:39;4.57;;;2.05;;
13743;SDS011;6943;52.368;9.966;2023-07-13T05:35:06;3.95;;;2.38;;
13743;SDS011;6943;52.368;9.966;2023-07-13T05:37:32;6.47;;;2.03;;
13743;SDS011;6943;52.368;9.966;2023-07-13T05:39:58;3.78;;;1.70;;
13743;SDS011;6943;52.368;9.966;2023-07-13T05:42:24;6.50;;;2.10;;
13743;SDS011;6943;52.368;9.966;2023-07-13T05:44:50;4.55;;;1.90;;
13743;SDS011;6943;52.368;9.966;2023-07-13T05:47:16;5.63;;;2.63;;
13743;SDS011;6943;52.368;9.966;2023-07-13T05:49:42;6.25;;;1.95;;
13743;SDS011;6943;52.368;9.966;2023-07-13T05:52:07;6.72;;;2.05;;
13743;SDS011;6943;52.368;9.966;2023-07-13T05:54:33;6.95;;;2.10;;
13743;SDS011;6943;52.368;9.966;2023-07-13T05:56:59;8.02;;;2.47;;
13743;SDS011;6943;52.368;9.966;2023-07-13T05:59:25;5.15;;;2.25;;
13743;SDS011;6943;52.368;9.966;2023-07-13T06:01:51;4.60;;;1.90;;
13743;SDS011;6943;52.368;9.966;2023-07-13T06:04:17;5.18;;;2.10;;
13743;SDS011;6943;52.368;9.966;2023-07-13T06:06:44;8.13;;;2.40;;
13743;SDS011;6943;52.368;9.966;2023-07-13T06:09:10;5.43;;;2.30;;
13743;SDS011;6943;52.368;9.966;2023-07-13T06:11:36;5.00;;;1.90;;
13743;SDS011;6943;52.368;9.966;2023-07-13T06:14:02;4.53;;;2.20;;
13743;SDS011;6943;52.368;9.966;2023-07-13T06:16:28;7.18;;;2.60;;
13743;SDS011;6943;52.368;9.966;2023-07-13T06:18:54;6.80;;;1.92;;
13743;SDS011;6943;52.368;9.966;2023-07-13T06:21:21;6.30;;;2.15;;
13743;SDS011;6943;52.368;9.966;2023-07-13T06:23:48;6.10;;;2.67;;
13743;SDS011;6943;52.368;9.966;2023-07-13T06:26:14;5.15;;;1.80;;
13743;SDS011;6943;52.368;9.966;2023-07-13T06:28:40;5.65;;;1.88;;
13743;SDS011;6943;52.368;9.966;2023-07-13T06:31:07;4.32;;;1.60;;
13743;SDS011;6943;52.368;9.966;2023-07-13T06:33:33;6.68;;;2.30;;
13743;SDS011;6943;52.368;9.966;2023-07-13T06:35:59;5.18;;;1.98;;
13743;SDS011;6943;52.368;9.966;2023-07-13T06:38:25;4.65;;;2.00;;
13743;SDS011;6943;52.368;9.966;2023-07-13T06:40:51;6.13;;;2.13;;
13743;SDS011;6943;52.368;9.966;2023-07-13T06:43:17;3.63;;;2.35;;
13743;SDS011;6943;52.368;9.966;2023-07-13T06:45:45;5.85;;;2.50;;
13743;SDS011;6943;52.368;9.966;2023-07-13T06:48:14;5.35;;;2.03;;
13743;SDS011;6943;52.368;9.966;2023-07-13T06:50:41;5.22;;;2.47;;
13743;SDS011;6943;52.368;9.966;2023-07-13T06:53:07;8.88;;;2.30;;
13743;SDS011;6943;52.368;9.966;2023-07-13T06:55:33;7.20;;;2.20;;
13743;SDS011;6943;52.368;9.966;2023-07-13T06:57:59;3.42;;;1.75;;
13743;SDS011;6943;52.368;9.966;2023-07-13T07:00:25;8.13;;;2.70;;
13743;SDS011;6943;52.368;9.966;2023-07-13T07:02:51;6.47;;;2.60;;
13743;SDS011;6943;52.368;9.966;2023-07-13T07:05:16;6.80;;;2.53;;
13743;SDS011;6943;52.368;9.966;2023-07-13T07:07:42;3.65;;;1.92;;
13743;SDS011;6943;52.368;9.966;2023-07-13T07:10:08;5.05;;;2.42;;
13743;SDS011;6943;52.368;9.966;2023-07-13T07:12:34;4.20;;;2.20;;
13743;SDS011;6943;52.368;9.966;2023-07-13T07:15:00;7.85;;;2.53;;
13743;SDS011;6943;52.368;9.966;2023-07-13T07:17:26;4.60;;;2.35;;
13743;SDS011;6943;52.368;9.966;2023-07-13T07:19:52;4.32;;;1.98;;
13743;SDS011;6943;52.368;9.966;2023-07-13T07:22:19;3.72;;;2.00;;
13743;SDS011;6943;52.368;9.966;2023-07-13T07:24:45;3.80;;;2.15;;
13743;SDS011;6943;52.368;9.966;2023-07-13T07:27:11;3.75;;;1.70;;
13743;SDS011;6943;52.368;9.966;2023-07-13T07:29:37;4.88;;;2.00;;
13743;SDS011;6943;52.368;9.966;2023-07-13T07:32:03;5.65;;;2.17;;
13743;SDS011;6943;52.368;9.966;2023-07-13T07:34:29;3.85;;;2.03;;
13743;SDS011;6943;52.368;9.966;2023-07-13T07:36:58;3.25;;;1.83;;
13743;SDS011;6943;52.368;9.966;2023-07-13T07:39:25;5.45;;;1.98;;
13743;SDS011;6943;52.368;9.966;2023-07-13T07:41:51;4.65;;;2.10;;
13743;SDS011;6943;52.368;9.966;2023-07-13T07:44:17;6.93;;;2.33;;
13743;SDS011;6943;52.368;9.966;2023-07-13T07:46:43;4.88;;;2.30;;
13743;SDS011;6943;52.368;9.966;2023-07-13T07:49:09;4.78;;;1.90;;
13743;SDS011;6943;52.368;9.966;2023-07-13T07:51:35;5.72;;;1.90;;
13743;SDS011;6943;52.368;9.966;2023-07-13T07:54:01;4.28;;;2.28;;
13743;SDS011;6943;52.368;9.966;2023-07-13T07:56:27;4.50;;;2.20;;
13743;SDS011;6943;52.368;9.966;2023-07-13T07:58:53;4.85;;;1.90;;
13743;SDS011;6943;52.368;9.966;2023-07-13T08:01:19;6.22;;;2.15;;
13743;SDS011;6943;52.368;9.966;2023-07-13T08:03:45;3.80;;;1.90;;
13743;SDS011;6943;52.368;9.966;2023-07-13T08:06:11;5.00;;;2.47;;
13743;SDS011;6943;52.368;9.966;2023-07-13T08:08:38;4.57;;;1.95;;
13743;SDS011;6943;52.368;9.966;2023-07-13T08:11:04;7.22;;;1.73;;
13743;SDS011;6943;52.368;9.966;2023-07-13T08:13:32;4.13;;;2.05;;
13743;SDS011;6943;52.368;9.966;2023-07-13T08:15:58;4.43;;;1.90;;
13743;SDS011;6943;52.368;9.966;2023-07-13T08:18:24;3.85;;;2.00;;
13743;SDS011;6943;52.368;9.966;2023-07-13T08:20:50;2.45;;;1.50;;
13743;SDS011;6943;52.368;9.966;2023-07-13T08:23:16;5.13;;;2.08;;
13743;SDS011;6943;52.368;9.966;2023-07-13T08:25:42;5.60;;;1.60;;
13743;SDS011;6943;52.368;9.966;2023-07-13T08:28:08;6.43;;;1.92;;
13743;SDS011;6943;52.368;9.966;2023-07-13T08:30:34;4.00;;;1.77;;
13743;SDS011;6943;52.368;9.966;2023-07-13T08:33:01;5.25;;;1.65;;
13743;SDS011;6943;52.368;9.966;2023-07-13T08:35:27;5.10;;;1.95;;
13743;SDS011;6943;52.368;9.966;2023-07-13T08:37:53;4.55;;;1.80;;
13743;SDS011;6943;52.368;9.966;2023-07-13T08:40:19;3.80;;;1.75;;
13743;SDS011;6943;52.368;9.966;2023-07-13T08:42:54;3.53;;;1.70;;
13743;SDS011;6943;52.368;9.966;2023-07-13T08:45:24;3.80;;;1.77;;
13743;SDS011;6943;52.368;9.966;2023-07-13T08:47:56;5.38;;;1.75;;
13743;SDS011;6943;52.368;9.966;2023-07-13T08:50:27;7.45;;;2.08;;
13743;SDS011;6943;52.368;9.966;2023-07-13T08:52:54;5.35;;;1.73;;
13743;SDS011;6943;52.368;9.966;2023-07-13T08:55:22;5.70;;;1.98;;
13743;SDS011;6943;52.368;9.966;2023-07-13T08:57:53;2.80;;;1.60;;
13743;SDS011;6943;52.368;9.966;2023-07-13T09:00:20;4.35;;;2.00;;
13743;SDS011;6943;52.368;9.966;2023-07-13T09:02:47;4.88;;;2.10;;
13743;SDS011;6943;52.368;9.966;2023-07-13T09:05:18;3.40;;;1.80;;
13743;SDS011;6943;52.368;9.966;2023-07-13T09:08:01;4.72;;;2.00;;
13743;SDS011;6943;52.368;9.966;2023-07-13T09:10:28;6.32;;;2.22;;
13743;SDS011;6943;52.368;9.966;2023-07-13T09:15:23;5.45;;;1.90;;
13743;SDS011;6943;52.368;9.966;2023-07-13T09:17:51;3.25;;;1.98;;
13743;SDS011;6943;52.368;9.966;2023-07-13T09:20:21;4.03;;;2.00;;
13743;SDS011;6943;52.368;9.966;2023-07-13T09:22:49;3.05;;;1.70;;
13743;SDS011;6943;52.368;9.966;2023-07-13T09:25:34;6.20;;;2.03;;
13743;SDS011;6943;52.368;9.966;2023-07-13T09:28:02;7.43;;;2.03;;
13743;SDS011;6943;52.368;9.966;2023-07-13T09:33:16;3.38;;;1.60;;
13743;SDS011;6943;52.368;9.966;2023-07-13T09:35:42;4.07;;;1.52;;
13743;SDS011;6943;52.368;9.966;2023-07-13T09:38:13;6.75;;;2.15;;
13743;SDS011;6943;52.368;9.966;2023-07-13T09:43:05;4.93;;;1.98;;
13743;SDS011;6943;52.368;9.966;2023-07-13T09:45:33;3.95;;;1.70;;
13743;SDS011;6943;52.368;9.966;2023-07-13T09:48:02;4.90;;;2.10;;
13743;SDS011;6943;52.368;9.966;2023-07-13T09:50:29;4.40;;;1.60;;
13743;SDS011;6943;52.368;9.966;2023-07-13T09:52:54;4.40;;;1.77;;
13743;SDS011;6943;52.368;9.966;2023-07-13T09:57:50;6.78;;;2.10;;
13743;SDS011;6943;52.368;9.966;2023-07-13T10:00:27;4.38;;;1.80;;
13743;SDS011;6943;52.368;9.966;2023-07-13T10:05:25;6.25;;;1.80;;
13743;SDS011;6943;52.368;9.966;2023-07-13T10:07:51;4.25;;;1.83;;
13743;SDS011;6943;52.368;9.966;2023-07-13T10:10:18;3.35;;;1.90;;
13743;SDS011;6943;52.368;9.966;2023-07-13T10:12:45;3.45;;;1.67;;
13743;SDS011;6943;52.368;9.966;2023-07-13T10:15:23;2.80;;;1.42;;
13743;SDS011;6943;52.368;9.966;2023-07-13T10:17:53;3.72;;;1.95;;
13743;SDS011;6943;52.368;9.966;2023-07-13T10:20:20;2.55;;;1.92;;
13743;SDS011;6943;52.368;9.966;2023-07-13T10:22:50;4.30;;;2.03;;
13743;SDS011;6943;52.368;9.966;2023-07-13T10:25:19;6.13;;;1.67;;
13743;SDS011;6943;52.368;9.966;2023-07-13T10:27:45;6.55;;;2.20;;
13743;SDS011;6943;52.368;9.966;2023-07-13T10:30:27;4.60;;;2.03;;
13743;SDS011;6943;52.368;9.966;2023-07-13T10:32:57;4.45;;;2.10;;
13743;SDS011;6943;52.368;9.966;2023-07-13T10:35:23;4.78;;;2.20;;
13743;SDS011;6943;52.368;9.966;2023-07-13T10:37:54;3.13;;;1.70;;
13743;SDS011;6943;52.368;9.966;2023-07-13T10:40:23;5.53;;;1.85;;
13743;SDS011;6943;52.368;9.966;2023-07-13T10:42:51;4.43;;;1.52;;
13743;SDS011;6943;52.368;9.966;2023-07-13T10:45:19;4.72;;;1.67;;
13743;SDS011;6943;52.368;9.966;2023-07-13T10:47:46;4.05;;;1.50;;
13743;SDS011;6943;52.368;9.966;2023-07-13T10:50:25;4.75;;;2.00;;
13743;SDS011;6943;52.368;9.966;2023-07-13T10:52:53;4.50;;;1.70;;
13743;SDS011;6943;52.368;9.966;2023-07-13T10:55:33;3.33;;;1.48;;
13743;SDS011;6943;52.368;9.966;2023-07-13T10:58:20;3.17;;;2.53;;
13743;SDS011;6943;52.368;9.966;2023-07-13T11:00:47;4.10;;;1.95;;
13743;SDS011;6943;52.368;9.966;2023-07-13T11:03:15;3.33;;;1.60;;
13743;SDS011;6943;52.368;9.966;2023-07-13T11:05:42;4.18;;;1.70;;
13743;SDS011;6943;52.368;9.966;2023-07-13T11:10:52;2.88;;;1.63;;
13743;SDS011;6943;52.368;9.966;2023-07-13T11:13:37;6.38;;;1.75;;
13743;SDS011;6943;52.368;9.966;2023-07-13T11:16:12;4.10;;;1.55;;
13743;SDS011;6943;52.368;9.966;2023-07-13T11:18:38;3.53;;;1.77;;
13743;SDS011;6943;52.368;9.966;2023-07-13T11:21:20;3.92;;;1.80;;
13743;SDS011;6943;52.368;9.966;2023-07-13T11:23:54;2.53;;;1.77;;
13743;SDS011;6943;52.368;9.966;2023-07-13T11:29:12;2.83;;;1.60;;
13743;SDS011;6943;52.368;9.966;2023-07-13T11:31:52;3.10;;;1.83;;
13743;SDS011;6943;52.368;9.966;2023-07-13T11:34:52;3.28;;;1.83;;
13743;SDS011;6943;52.368;9.966;2023-07-13T11:37:12;3.38;;;1.75;;
13743;SDS011;6943;52.368;9.966;2023-07-13T11:39:41;3.35;;;1.70;;
13743;SDS011;6943;52.368;9.966;2023-07-13T11:42:08;2.95;;;1.83;;
13743;SDS011;6943;52.368;9.966;2023-07-13T11:44:41;4.30;;;1.85;;
13743;SDS011;6943;52.368;9.966;2023-07-13T11:47:08;3.85;;;1.83;;
13743;SDS011;6943;52.368;9.966;2023-07-13T11:49:40;2.72;;;1.38;;
13743;SDS011;6943;52.368;9.966;2023-07-13T11:52:10;4.10;;;1.90;;
13743;SDS011;6943;52.368;9.966;2023-07-13T11:54:43;3.47;;;1.67;;
13743;SDS011;6943;52.368;9.966;2023-07-13T11:57:20;4.95;;;1.75;;
13743;SDS011;6943;52.368;9.966;2023-07-13T11:59:49;2.22;;;1.60;;
13743;SDS011;6943;52.368;9.966;2023-07-13T12:02:16;4.15;;;1.80;;
13743;SDS011;6943;52.368;9.966;2023-07-13T12:04:43;2.85;;;1.83;;
13743;SDS011;6943;52.368;9.966;2023-07-13T12:07:17;2.08;;;1.45;;
13743;SDS011;6943;52.368;9.966;2023-07-13T12:09:43;2.53;;;1.73;;
13743;SDS011;6943;52.368;9.966;2023-07-13T12:12:13;3.30;;;1.50;;
13743;SDS011;6943;52.368;9.966;2023-07-13T12:14:39;3.00;;;1.70;;
13743;SDS011;6943;52.368;9.966;2023-07-13T12:17:10;4.70;;;1.88;;
13743;SDS011;6943;52.368;9.966;2023-07-13T12:19:37;3.88;;;2.13;;
13743;SDS011;6943;52.368;9.966;2023-07-13T12:22:04;7.07;;;1.55;;
13743;SDS011;6943;52.368;9.966;2023-07-13T12:24:39;3.95;;;1.70;;
13743;SDS011;6943;52.368;9.966;2023-07-13T12:27:05;3.13;;;1.75;;
13743;SDS011;6943;52.368;9.966;2023-07-13T12:29:32;3.17;;;1.70;;
13743;SDS011;6943;52.368;9.966;2023-07-13T12:31:58;1.75;;;1.33;;
13743;SDS011;6943;52.368;9.966;2023-07-13T12:34:25;3.58;;;1.55;;
13743;SDS011;6943;52.368;9.966;2023-07-13T12:36:53;2.40;;;1.88;;
13743;SDS011;6943;52.368;9.966;2023-07-13T12:39:20;2.80;;;1.60;;
13743;SDS011;6943;52.368;9.966;2023-07-13T12:41:48;3.53;;;1.90;;
13743;SDS011;6943;52.368;9.966;2023-07-13T12:44:16;3.20;;;1.60;;
13743;SDS011;6943;52.368;9.966;2023-07-13T12:46:52;3.80;;;1.80;;
13743;SDS011;6943;52.368;9.966;2023-07-13T12:49:18;4.25;;;1.75;;
13743;SDS011;6943;52.368;9.966;2023-07-13T12:51:49;3.72;;;1.67;;
13743;SDS011;6943;52.368;9.966;2023-07-13T12:54:17;4.65;;;2.17;;
13743;SDS011;6943;52.368;9.966;2023-07-13T12:56:44;3.67;;;1.80;;
13743;SDS011;6943;52.368;9.966;2023-07-13T12:59:15;3.33;;;1.90;;
13743;SDS011;6943;52.368;9.966;2023-07-13T13:01:42;2.38;;;1.70;;
13743;SDS011;6943;52.368;9.966;2023-07-13T13:04:08;4.30;;;1.80;;
13743;SDS011;6943;52.368;9.966;2023-07-13T13:06:36;3.72;;;1.80;;
13743;SDS011;6943;52.368;9.966;2023-07-13T13:09:02;3.08;;;1.90;;
13743;SDS011;6943;52.368;9.966;2023-07-13T13:11:29;3.90;;;1.90;;
13743;SDS011;6943;52.368;9.966;2023-07-13T13:13:55;3.00;;;1.75;;
13743;SDS011;6943;52.368;9.966;2023-07-13T13:16:23;2.78;;;1.75;;
13743;SDS011;6943;52.368;9.966;2023-07-13T13:18:49;5.28;;;1.80;;
13743;SDS011;6943;52.368;9.966;2023-07-13T13:21:16;2.83;;;1.70;;
13743;SDS011;6943;52.368;9.966;2023-07-13T13:23:42;2.97;;;1.70;;
13743;SDS011;6943;52.368;9.966;2023-07-13T13:26:10;5.45;;;2.05;;
13743;SDS011;6943;52.368;9.966;2023-07-13T13:28:37;4.47;;;2.25;;
13743;SDS011;6943;52.368;9.966;2023-07-13T13:31:02;3.50;;;2.00;;
13743;SDS011;6943;52.368;9.966;2023-07-13T13:33:28;3.92;;;1.90;;
13743;SDS011;6943;52.368;9.966;2023-07-13T13:35:55;3.22;;;2.05;;
13743;SDS011;6943;52.368;9.966;2023-07-13T13:38:26;4.30;;;1.90;;
13743;SDS011;6943;52.368;9.966;2023-07-13T13:40:53;5.47;;;2.05;;
13743;SDS011;6943;52.368;9.966;2023-07-13T13:43:23;3.92;;;2.20;;
13743;SDS011;6943;52.368;9.966;2023-07-13T13:45:56;2.20;;;1.88;;
13743;SDS011;6943;52.368;9.966;2023-07-13T13:48:26;3.47;;;1.90;;
13743;SDS011;6943;52.368;9.966;2023-07-13T13:50:56;4.85;;;2.00;;
13743;SDS011;6943;52.368;9.966;2023-07-13T13:53:22;4.85;;;2.40;;
13743;SDS011;6943;52.368;9.966;2023-07-13T13:55:51;2.25;;;1.70;;
13743;SDS011;6943;52.368;9.966;2023-07-13T13:58:18;2.63;;;1.73;;
13743;SDS011;6943;52.368;9.966;2023-07-13T14:00:43;3.97;;;1.80;;
13743;SDS011;6943;52.368;9.966;2023-07-13T14:03:19;3.47;;;1.67;;
13743;SDS011;6943;52.368;9.966;2023-07-13T14:05:46;4.87;;;1.60;;
13743;SDS011;6943;52.368;9.966;2023-07-13T14:08:13;5.13;;;1.40;;
13743;SDS011;6943;52.368;9.966;2023-07-13T14:10:40;2.10;;;1.50;;
13743;SDS011;6943;52.368;9.966;2023-07-13T14:13:07;2.90;;;1.40;;
13743;SDS011;6943;52.368;9.966;2023-07-13T14:15:42;2.50;;;1.40;;
13743;SDS011;6943;52.368;9.966;2023-07-13T14:18:08;3.83;;;1.80;;
13743;SDS011;6943;52.368;9.966;2023-07-13T14:20:34;3.00;;;1.67;;
13743;SDS011;6943;52.368;9.966;2023-07-13T14:23:00;4.70;;;1.77;;
13743;SDS011;6943;52.368;9.966;2023-07-13T14:25:26;4.40;;;1.87;;
13743;SDS011;6943;52.368;9.966;2023-07-13T14:27:53;3.27;;;1.80;;
13743;SDS011;6943;52.368;9.966;2023-07-13T14:30:22;3.50;;;1.73;;
13743;SDS011;6943;52.368;9.966;2023-07-13T14:32:48;2.23;;;1.70;;
13743;SDS011;6943;52.368;9.966;2023-07-13T14:35:14;1.60;;;1.50;;
13743;SDS011;6943;52.368;9.966;2023-07-13T14:37:41;4.13;;;1.80;;
13743;SDS011;6943;52.368;9.966;2023-07-13T14:40:14;6.17;;;1.87;;
13743;SDS011;6943;52.368;9.966;2023-07-13T14:42:40;2.47;;;1.70;;
13743;SDS011;6943;52.368;9.966;2023-07-13T14:45:16;4.95;;;1.98;;
13743;SDS011;6943;52.368;9.966;2023-07-13T14:47:42;2.47;;;1.85;;
13743;SDS011;6943;52.368;9.966;2023-07-13T14:50:12;4.25;;;2.38;;
13743;SDS011;6943;52.368;9.966;2023-07-13T14:52:39;2.08;;;1.88;;
13743;SDS011;6943;52.368;9.966;2023-07-13T14:55:13;3.92;;;1.80;;
13743;SDS011;6943;52.368;9.966;2023-07-13T14:57:39;3.17;;;2.03;;
13743;SDS011;6943;52.368;9.966;2023-07-13T15:00:11;6.00;;;1.90;;
13743;SDS011;6943;52.368;9.966;2023-07-13T15:02:38;3.60;;;1.67;;
13743;SDS011;6943;52.368;9.966;2023-07-13T15:05:11;2.28;;;1.70;;
13743;SDS011;6943;52.368;9.966;2023-07-13T15:07:38;1.73;;;1.50;;
13743;SDS011;6943;52.368;9.966;2023-07-13T15:10:12;2.60;;;1.60;;
13743;SDS011;6943;52.368;9.966;2023-07-13T15:12:39;1.97;;;1.50;;
13743;SDS011;6943;52.368;9.966;2023-07-13T15:15:05;3.67;;;1.70;;
13743;SDS011;6943;52.368;9.966;2023-07-13T15:17:31;1.70;;;1.50;;
13743;SDS011;6943;52.368;9.966;2023-07-13T15:19:59;3.67;;;1.60;;